Terminal Aerodrome Forecast
Issued by NWS

Home | Current Version | Previous Version | Graphics & Text | Print | Product List | Glossary On
Versions: 1 2 3 4 5 6 7 8 9 10 11 12 13 14 15 16 17 18 19 20 21 22 23 24 25 26 27 28 29 30 31 32 33 34 35 36 37 38 39
000
FTUS43 KABR 241956 AAC
TAFATY
TAF AMD
KATY 241956Z 2420/2518 08011KT 3/4SM -SN BR BKN017 OVC024
     FM242200 14006KT 1SM -SN OVC012
     FM242300 14005KT 2SM -SN BR OVC015
     FM250000 23004KT 2SM -SN OVC008
     FM250100 27005KT 3SM BR OVC010
     FM250300 27007KT P6SM BKN003
     FM250700 27010KT P6SM SCT008
     FM250900 27010KT P6SM SCT120=

USA.gov is the U.S. government's official web portal to all federal, state and local government web resources and services.